sensor_id;sensor_type;location;lat;lon;timestamp;pressure;altitude;pressure_sealevel;temperature;humidity
59103;BME280;43999;51.660;5.616;2023-11-22T00:01:38;102524.88;;;2.85;100.00
59103;BME280;43999;51.660;5.616;2023-11-22T00:04:37;102520.56;;;2.82;100.00
59103;BME280;43999;51.660;5.616;2023-11-22T00:07:33;102517.09;;;2.83;100.00
59103;BME280;43999;51.660;5.616;2023-11-22T00:10:21;102519.69;;;2.86;100.00
59103;BME280;43999;51.660;5.616;2023-11-22T00:13:11;102505.03;;;2.85;100.00
59103;BME280;43999;51.660;5.616;2023-11-22T00:16:00;102509.31;;;2.82;100.00
59103;BME280;43999;51.660;5.616;2023-11-22T00:18:48;102515.41;;;2.85;100.00
59103;BME280;43999;51.660;5.616;2023-11-22T00:21:36;102507.59;;;2.81;100.00
59103;BME280;43999;51.660;5.616;2023-11-22T00:24:25;102511.91;;;2.80;100.00
59103;BME280;43999;51.660;5.616;2023-11-22T00:27:13;102517.94;;;2.78;100.00
59103;BME280;43999;51.660;5.616;2023-11-22T00:30:06;102528.31;;;2.81;100.00
59103;BME280;43999;51.660;5.616;2023-11-22T00:32:57;102522.22;;;2.77;100.00
59103;BME280;43999;51.660;5.616;2023-11-22T00:35:46;102529.16;;;2.77;100.00
59103;BME280;43999;51.660;5.616;2023-11-22T00:38:34;102529.13;;;2.72;100.00
59103;BME280;43999;51.660;5.616;2023-11-22T00:41:31;102542.06;;;2.74;100.00
59103;BME280;43999;51.660;5.616;2023-11-22T00:44:19;102541.19;;;2.70;100.00
59103;BME280;43999;51.660;5.616;2023-11-22T00:47:09;102542.91;;;2.71;100.00
59103;BME280;43999;51.660;5.616;2023-11-22T00:49:59;102536.03;;;2.70;100.00
59103;BME280;43999;51.660;5.616;2023-11-22T00:52:48;102532.53;;;2.68;100.00
59103;BME280;43999;51.660;5.616;2023-11-22T00:55:38;102530.81;;;2.67;100.00
59103;BME280;43999;51.660;5.616;2023-11-22T00:58:27;102530.81;;;2.64;100.00
59103;BME280;43999;51.660;5.616;2023-11-22T01:01:15;102534.22;;;2.63;100.00
59103;BME280;43999;51.660;5.616;2023-11-22T01:04:05;102536.81;;;2.63;100.00
59103;BME280;43999;51.660;5.616;2023-11-22T01:06:55;102552.34;;;2.61;100.00
59103;BME280;43999;51.660;5.616;2023-11-22T01:09:44;102566.16;;;2.60;100.00
59103;BME280;43999;51.660;5.616;2023-11-22T01:12:35;102565.25;;;2.58;100.00
59103;BME280;43999;51.660;5.616;2023-11-22T01:15:23;102565.25;;;2.58;100.00
59103;BME280;43999;51.660;5.616;2023-11-22T01:18:12;102567.81;;;2.55;100.00
59103;BME280;43999;51.660;5.616;2023-11-22T01:21:01;102572.97;;;2.52;100.00
59103;BME280;43999;51.660;5.616;2023-11-22T01:23:50;102573.84;;;2.51;100.00
59103;BME280;43999;51.660;5.616;2023-11-22T01:26:37;102585.91;;;2.50;100.00
59103;BME280;43999;51.660;5.616;2023-11-22T01:29:27;102595.38;;;2.45;100.00
59103;BME280;43999;51.660;5.616;2023-11-22T01:32:19;102596.22;;;2.44;100.00
59103;BME280;43999;51.660;5.616;2023-11-22T01:35:08;102591.88;;;2.40;100.00
59103;BME280;43999;51.660;5.616;2023-11-22T01:38:01;102607.41;;;2.40;100.00
59103;BME280;43999;51.660;5.616;2023-11-22T01:40:53;102606.50;;;2.38;100.00
59103;BME280;43999;51.660;5.616;2023-11-22T01:43:42;102615.13;;;2.37;100.00
59103;BME280;43999;51.660;5.616;2023-11-22T01:46:37;102620.28;;;2.32;100.00
59103;BME280;43999;51.660;5.616;2023-11-22T01:49:26;102625.44;;;2.32;100.00
59103;BME280;43999;51.660;5.616;2023-11-22T01:52:28;102619.34;;;2.29;100.00
59103;BME280;43999;51.660;5.616;2023-11-22T01:55:18;102625.41;;;2.28;100.00
59103;BME280;43999;51.660;5.616;2023-11-22T01:58:07;102626.22;;;2.25;100.00
59103;BME280;43999;51.660;5.616;2023-11-22T02:00:55;102631.38;;;2.24;100.00
59103;BME280;43999;51.660;5.616;2023-11-22T02:03:46;102627.03;;;2.21;100.00
59103;BME280;43999;51.660;5.616;2023-11-22T02:06:43;102617.53;;;2.17;100.00
59103;BME280;43999;51.660;5.616;2023-11-22T02:09:32;102618.38;;;2.14;100.00
59103;BME280;43999;51.660;5.616;2023-11-22T02:12:22;102606.25;;;2.12;100.00
59103;BME280;43999;51.660;5.616;2023-11-22T02:15:11;102609.75;;;2.12;100.00
59103;BME280;43999;51.660;5.616;2023-11-22T02:17:59;102618.34;;;2.11;100.00
59103;BME280;43999;51.660;5.616;2023-11-22T02:20:58;102616.56;;;2.07;100.00
59103;BME280;43999;51.660;5.616;2023-11-22T02:23:46;102614.81;;;2.02;100.00
59103;BME280;43999;51.660;5.616;2023-11-22T02:26:37;102622.53;;;2.00;100.00
59103;BME280;43999;51.660;5.616;2023-11-22T02:29:26;102619.91;;;1.95;100.00
59103;BME280;43999;51.660;5.616;2023-11-22T02:32:17;102631.09;;;1.94;100.00
59103;BME280;43999;51.660;5.616;2023-11-22T02:35:06;102630.22;;;1.94;100.00
59103;BME280;43999;51.660;5.616;2023-11-22T02:37:55;102637.94;;;1.91;100.00
59103;BME280;43999;51.660;5.616;2023-11-22T02:40:46;102629.31;;;1.92;100.00
59103;BME280;43999;51.660;5.616;2023-11-22T02:43:37;102630.22;;;1.94;100.00
59103;BME280;43999;51.660;5.616;2023-11-22T02:46:25;102619.91;;;1.94;100.00
59103;BME280;43999;51.660;5.616;2023-11-22T02:49:13;102620.69;;;1.88;100.00
59103;BME280;43999;51.660;5.616;2023-11-22T02:52:01;102618.00;;;1.81;100.00
59103;BME280;43999;51.660;5.616;2023-11-22T02:54:50;102617.09;;;1.75;100.00
59103;BME280;43999;51.660;5.616;2023-11-22T02:57:41;102619.66;;;1.74;100.00
59103;BME280;43999;51.660;5.616;2023-11-22T03:00:29;102610.97;;;1.67;100.00
59103;BME280;43999;51.660;5.616;2023-11-22T03:03:17;102618.66;;;1.63;100.00
59103;BME280;43999;51.660;5.616;2023-11-22T03:06:05;102615.19;;;1.59;100.00
59103;BME280;43999;51.660;5.616;2023-11-22T03:08:54;102611.69;;;1.55;100.00
59103;BME280;43999;51.660;5.616;2023-11-22T03:11:42;102617.69;;;1.54;100.00
59103;BME280;43999;51.660;5.616;2023-11-22T03:14:33;102622.06;;;1.58;100.00
59103;BME280;43999;51.660;5.616;2023-11-22T03:17:21;102622.06;;;1.58;100.00
59103;BME280;43999;51.660;5.616;2023-11-22T03:20:12;102619.47;;;1.58;100.00
59103;BME280;43999;51.660;5.616;2023-11-22T03:23:00;102615.13;;;1.56;100.00
59103;BME280;43999;51.660;5.616;2023-11-22T03:25:49;102622.06;;;1.58;100.00
59103;BME280;43999;51.660;5.616;2023-11-22T03:28:38;102623.75;;;1.56;100.00
59103;BME280;43999;51.660;5.616;2023-11-22T03:31:30;102626.31;;;1.55;100.00
59103;BME280;43999;51.660;5.616;2023-11-22T03:34:19;102633.97;;;1.49;100.00
59103;BME280;43999;51.660;5.616;2023-11-22T03:37:07;102637.41;;;1.45;100.00
59103;BME280;43999;51.660;5.616;2023-11-22T03:39:56;102639.91;;;1.40;100.00
59103;BME280;43999;51.660;5.616;2023-11-22T03:42:44;102650.25;;;1.40;100.00
59103;BME280;43999;51.660;5.616;2023-11-22T03:45:39;102659.66;;;1.36;100.00
59103;BME280;43999;51.660;5.616;2023-11-22T03:48:28;102669.16;;;1.39;100.00
59103;BME280;43999;51.660;5.616;2023-11-22T03:51:17;102677.78;;;1.39;100.00
59103;BME280;43999;51.660;5.616;2023-11-22T03:54:09;102697.59;;;1.40;100.00
59103;BME280;43999;51.660;5.616;2023-11-22T03:56:59;102700.16;;;1.39;100.00
59103;BME280;43999;51.660;5.616;2023-11-22T03:59:57;102708.81;;;1.41;100.00
59103;BME280;43999;51.660;5.616;2023-11-22T04:02:58;102708.75;;;1.38;100.00
59103;BME280;43999;51.660;5.616;2023-11-22T04:05:50;102713.06;;;1.37;100.00
59103;BME280;43999;51.660;5.616;2023-11-22T04:08:40;102708.72;;;1.35;100.00
59103;BME280;43999;51.660;5.616;2023-11-22T04:11:31;102719.06;;;1.36;100.00
59103;BME280;43999;51.660;5.616;2023-11-22T04:14:20;102725.13;;;1.37;100.00
59103;BME280;43999;51.660;5.616;2023-11-22T04:17:10;102725.06;;;1.32;100.00
59103;BME280;43999;51.660;5.616;2023-11-22T04:20:01;102738.00;;;1.35;100.00
59103;BME280;43999;51.660;5.616;2023-11-22T04:22:53;102728.47;;;1.31;100.00
59103;BME280;43999;51.660;5.616;2023-11-22T04:25:44;102734.50;;;1.30;100.00
59103;BME280;43999;51.660;5.616;2023-11-22T04:28:34;102733.63;;;1.30;100.00
59103;BME280;43999;51.660;5.616;2023-11-22T04:31:25;102737.84;;;1.24;100.00
59103;BME280;43999;51.660;5.616;2023-11-22T04:34:15;102734.38;;;1.21;100.00
59103;BME280;43999;51.660;5.616;2023-11-22T04:37:07;102739.53;;;1.21;100.00
59103;BME280;43999;51.660;5.616;2023-11-22T04:40:02;102740.34;;;1.18;100.00
59103;BME280;43999;51.660;5.616;2023-11-22T04:42:54;102743.81;;;1.20;100.00
59103;BME280;43999;51.660;5.616;2023-11-22T04:45:45;102736.00;;;1.17;100.00
59103;BME280;43999;51.660;5.616;2023-11-22T04:48:34;102729.06;;;1.13;100.00
59103;BME280;43999;51.660;5.616;2023-11-22T04:51:22;102725.59;;;1.13;100.00
59103;BME280;43999;51.660;5.616;2023-11-22T04:54:12;102723.00;;;1.11;100.00
59103;BME280;43999;51.660;5.616;2023-11-22T04:57:01;102742.78;;;1.11;100.00
59103;BME280;43999;51.660;5.616;2023-11-22T04:59:52;102741.84;;;1.05;100.00
59103;BME280;43999;51.660;5.616;2023-11-22T05:02:45;102748.75;;;1.06;100.00
59103;BME280;43999;51.660;5.616;2023-11-22T05:05:36;102745.25;;;1.03;100.00
59103;BME280;43999;51.660;5.616;2023-11-22T05:08:25;102736.56;;;0.98;100.00
59103;BME280;43999;51.660;5.616;2023-11-22T05:11:15;102749.47;;;0.98;100.00
59103;BME280;43999;51.660;5.616;2023-11-22T05:14:05;102748.56;;;0.96;100.00
59103;BME280;43999;51.660;5.616;2023-11-22T05:16:54;102739.06;;;0.92;100.00
59103;BME280;43999;51.660;5.616;2023-11-22T05:19:45;102752.81;;;0.92;100.00
59103;BME280;43999;51.660;5.616;2023-11-22T05:22:38;102753.66;;;0.91;100.00
59103;BME280;43999;51.660;5.616;2023-11-22T05:25:37;102742.38;;;0.86;100.00
59103;BME280;43999;51.660;5.616;2023-11-22T05:28:25;102750.22;;;0.91;100.00
59103;BME280;43999;51.660;5.616;2023-11-22T05:31:21;102744.19;;;0.90;100.00
59103;BME280;43999;51.660;5.616;2023-11-22T05:34:11;102730.41;;;0.91;100.00
59103;BME280;43999;51.660;5.616;2023-11-22T05:36:59;102727.84;;;0.91;100.00
59103;BME280;43999;51.660;5.616;2023-11-22T05:39:52;102727.06;;;0.95;100.00
59103;BME280;43999;51.660;5.616;2023-11-22T05:42:41;102734.84;;;0.98;100.00
59103;BME280;43999;51.660;5.616;2023-11-22T05:45:29;102740.91;;;1.02;100.00
59103;BME280;43999;51.660;5.616;2023-11-22T05:48:17;102746.94;;;0.99;100.00
59103;BME280;43999;51.660;5.616;2023-11-22T05:51:08;102754.75;;;1.04;100.00
59103;BME280;43999;51.660;5.616;2023-11-22T05:54:01;102765.06;;;1.04;100.00
59103;BME280;43999;51.660;5.616;2023-11-22T05:56:49;102773.69;;;1.04;100.00
59103;BME280;43999;51.660;5.616;2023-11-22T05:59:43;102784.09;;;1.09;100.00
59103;BME280;43999;51.660;5.616;2023-11-22T06:02:32;102769.41;;;1.06;100.00
59103;BME280;43999;51.660;5.616;2023-11-22T06:05:25;102770.28;;;1.07;100.00
59103;BME280;43999;51.660;5.616;2023-11-22T06:08:14;102771.94;;;1.05;100.00
59103;BME280;43999;51.660;5.616;2023-11-22T06:11:09;102776.31;;;1.07;100.00
59103;BME280;43999;51.660;5.616;2023-11-22T06:13:57;102782.28;;;1.05;100.00
59103;BME280;43999;51.660;5.616;2023-11-22T06:16:46;102784.06;;;1.07;100.00
59103;BME280;43999;51.660;5.616;2023-11-22T06:19:37;102776.31;;;1.07;100.00
59103;BME280;43999;51.660;5.616;2023-11-22T06:22:29;102790.09;;;1.10;100.00
59103;BME280;43999;51.660;5.616;2023-11-22T06:25:19;102797.84;;;1.10;100.00
59103;BME280;43999;51.660;5.616;2023-11-22T06:28:07;102784.94;;;1.10;100.00
59103;BME280;43999;51.660;5.616;2023-11-22T06:30:55;102784.94;;;1.10;100.00
59103;BME280;43999;51.660;5.616;2023-11-22T06:33:48;102778.94;;;1.11;100.00
59103;BME280;43999;51.660;5.616;2023-11-22T06:36:43;102793.59;;;1.12;100.00
59103;BME280;43999;51.660;5.616;2023-11-22T06:39:46;102802.28;;;1.17;100.00
59103;BME280;43999;51.660;5.616;2023-11-22T06:42:49;102813.50;;;1.19;100.00
59103;BME280;43999;51.660;5.616;2023-11-22T06:45:43;102814.38;;;1.19;100.00
59103;BME280;43999;51.660;5.616;2023-11-22T06:48:32;102824.72;;;1.19;100.00
59103;BME280;43999;51.660;5.616;2023-11-22T06:51:38;102818.78;;;1.25;100.00
59103;BME280;43999;51.660;5.616;2023-11-22T06:54:37;102808.44;;;1.25;100.00
59103;BME280;43999;51.660;5.616;2023-11-22T06:57:47;102804.25;;;1.32;100.00
59103;BME280;43999;51.660;5.616;2023-11-22T07:00:53;102800.88;;;1.37;100.00
59103;BME280;43999;51.660;5.616;2023-11-22T07:03:48;102788.84;;;1.39;100.00
59103;BME280;43999;51.660;5.616;2023-11-22T07:07:06;102798.41;;;1.43;100.00
59103;BME280;43999;51.660;5.616;2023-11-22T07:10:10;102788.13;;;1.47;100.00
59103;BME280;43999;51.660;5.616;2023-11-22T07:13:09;102795.88;;;1.47;100.00
59103;BME280;43999;51.660;5.616;2023-11-22T07:16:06;102793.34;;;1.50;100.00
59103;BME280;43999;51.660;5.616;2023-11-22T07:18:55;102789.03;;;1.50;100.00
59103;BME280;43999;51.660;5.616;2023-11-22T07:21:46;102798.56;;;1.54;100.00
59103;BME280;43999;51.660;5.616;2023-11-22T07:27:55;102796.03;;;1.57;100.00
59103;BME280;43999;51.660;5.616;2023-11-22T07:30:50;102790.88;;;1.57;100.00
59103;BME280;43999;51.660;5.616;2023-11-22T07:33:54;102790.88;;;1.59;100.00
59103;BME280;43999;51.660;5.616;2023-11-22T07:36:45;102793.47;;;1.59;100.00
59103;BME280;43999;51.660;5.616;2023-11-22T07:39:49;102804.72;;;1.63;100.00
59103;BME280;43999;51.660;5.616;2023-11-22T07:43:00;102793.53;;;1.64;100.00
59103;BME280;43999;51.660;5.616;2023-11-22T07:46:06;102809.94;;;1.67;100.00
59103;BME280;43999;51.660;5.616;2023-11-22T07:49:14;102804.78;;;1.67;100.00
59103;BME280;43999;51.660;5.616;2023-11-22T07:52:30;102814.31;;;1.70;100.00
59103;BME280;43999;51.660;5.616;2023-11-22T07:55:39;102812.53;;;1.67;100.00
59103;BME280;43999;51.660;5.616;2023-11-22T07:58:49;102840.13;;;1.68;100.00
59103;BME280;43999;51.660;5.616;2023-11-22T08:01:38;102828.84;;;1.61;100.00
59103;BME280;43999;51.660;5.616;2023-11-22T08:04:41;102842.69;;;1.67;100.00
59103;BME280;43999;51.660;5.616;2023-11-22T08:07:35;102843.53;;;1.67;100.00
59103;BME280;43999;51.660;5.616;2023-11-22T08:10:28;102839.28;;;1.68;100.00
59103;BME280;43999;51.660;5.616;2023-11-22T08:13:39;102841.94;;;1.74;100.00
59103;BME280;43999;51.660;5.616;2023-11-22T08:16:50;102842.00;;;1.78;100.00
59103;BME280;43999;51.660;5.616;2023-11-22T08:19:42;102841.16;;;1.81;100.00
59103;BME280;43999;51.660;5.616;2023-11-22T08:22:36;102861.94;;;1.87;100.00
59103;BME280;43999;51.660;5.616;2023-11-22T08:25:34;102867.13;;;1.89;100.00
59103;BME280;43999;51.660;5.616;2023-11-22T08:28:38;102865.53;;;1.95;100.00
59103;BME280;43999;51.660;5.616;2023-11-22T08:31:50;102870.72;;;1.97;100.00
59103;BME280;43999;51.660;5.616;2023-11-22T08:34:53;102865.56;;;1.99;100.00
59103;BME280;43999;51.660;5.616;2023-11-22T08:38:04;102856.09;;;1.99;100.00
59103;BME280;43999;51.660;5.616;2023-11-22T08:41:17;102857.84;;;2.00;100.00
59103;BME280;43999;51.660;5.616;2023-11-22T08:44:14;102869.03;;;2.01;100.00
59103;BME280;43999;51.660;5.616;2023-11-22T08:47:07;102869.94;;;2.03;100.00
59103;BME280;43999;51.660;5.616;2023-11-22T08:49:59;102881.28;;;2.11;100.00
59103;BME280;43999;51.660;5.616;2023-11-22T08:52:47;102889.94;;;2.14;100.00
59103;BME280;43999;51.660;5.616;2023-11-22T08:56:06;102887.44;;;2.21;100.00
59103;BME280;43999;51.660;5.616;2023-11-22T08:59:05;102885.75;;;2.24;100.00
59103;BME280;43999;51.660;5.616;2023-11-22T09:01:58;102878.03;;;2.29;100.00
59103;BME280;43999;51.660;5.616;2023-11-22T09:05:08;102882.41;;;2.31;100.00
59103;BME280;43999;51.660;5.616;2023-11-22T09:07:57;102885.97;;;2.41;100.00
59103;BME280;43999;51.660;5.616;2023-11-22T09:11:06;102892.03;;;2.42;100.00
59103;BME280;43999;51.660;5.616;2023-11-22T09:14:10;102885.94;;;2.40;100.00
59103;BME280;43999;51.660;5.616;2023-11-22T09:17:14;102872.19;;;2.42;100.00
59103;BME280;43999;51.660;5.616;2023-11-22T09:20:06;102884.34;;;2.48;100.00
59103;BME280;43999;51.660;5.616;2023-11-22T09:22:57;102893.00;;;2.51;100.00
59103;BME280;43999;51.660;5.616;2023-11-22T09:26:06;102904.31;;;2.60;100.00
59103;BME280;43999;51.660;5.616;2023-11-22T09:29:00;102896.56;;;2.60;100.00
59103;BME280;43999;51.660;5.616;2023-11-22T09:31:57;102882.75;;;2.58;100.00
59103;BME280;43999;51.660;5.616;2023-11-22T09:35:05;102880.22;;;2.62;100.00
59103;BME280;43999;51.660;5.616;2023-11-22T09:38:01;102887.13;;;2.66;100.00
59103;BME280;43999;51.660;5.616;2023-11-22T09:40:53;102891.56;;;2.74;100.00
59103;BME280;43999;51.660;5.616;2023-11-22T09:43:43;102896.78;;;2.78;100.00
59103;BME280;43999;51.660;5.616;2023-11-22T09:46:36;102898.50;;;2.76;100.00
59103;BME280;43999;51.660;5.616;2023-11-22T09:50:07;102903.75;;;2.82;100.00
59103;BME280;43999;51.660;5.616;2023-11-22T09:53:04;102900.28;;;2.83;100.00
59103;BME280;43999;51.660;5.616;2023-11-22T09:56:08;102899.47;;;2.87;100.00
59103;BME280;43999;51.660;5.616;2023-11-22T09:59:09;102884.03;;;2.95;100.00
59103;BME280;43999;51.660;5.616;2023-11-22T10:02:38;102892.78;;;3.07;100.00
59103;BME280;43999;51.660;5.616;2023-11-22T10:05:29;102886.00;;;3.18;100.00
59103;BME280;43999;51.660;5.616;2023-11-22T10:08:34;102893.81;;;3.21;100.00
59103;BME280;43999;51.660;5.616;2023-11-22T10:11:24;102895.56;;;3.27;100.00
59103;BME280;43999;51.660;5.616;2023-11-22T10:14:25;102894.69;;;3.25;100.00
59103;BME280;43999;51.660;5.616;2023-11-22T10:17:15;102891.28;;;3.27;100.00
59103;BME280;43999;51.660;5.616;2023-11-22T10:20:07;102890.41;;;3.30;100.00
59103;BME280;43999;51.660;5.616;2023-11-22T10:23:01;102889.56;;;3.31;100.00
59103;BME280;43999;51.660;5.616;2023-11-22T10:26:01;102892.25;;;3.40;100.00
59103;BME280;43999;51.660;5.616;2023-11-22T10:28:57;102888.84;;;3.47;100.00
59103;BME280;43999;51.660;5.616;2023-11-22T10:31:51;102880.22;;;3.51;100.00
59103;BME280;43999;51.660;5.616;2023-11-22T10:34:42;102901.00;;;3.56;100.00
59103;BME280;43999;51.660;5.616;2023-11-22T10:37:42;102894.97;;;3.55;100.00
59103;BME280;43999;51.660;5.616;2023-11-22T10:40:35;102886.34;;;3.56;100.00
59103;BME280;43999;51.660;5.616;2023-11-22T10:43:23;102885.47;;;3.57;100.00
59103;BME280;43999;51.660;5.616;2023-11-22T10:46:16;102879.50;;;3.65;100.00
59103;BME280;43999;51.660;5.616;2023-11-22T10:49:06;102876.03;;;3.63;100.00
59103;BME280;43999;51.660;5.616;2023-11-22T10:52:08;102857.97;;;3.73;100.00
59103;BME280;43999;51.660;5.616;2023-11-22T10:55:04;102847.63;;;3.81;100.00
59103;BME280;43999;51.660;5.616;2023-11-22T10:58:03;102846.81;;;3.90;100.00
59103;BME280;43999;51.660;5.616;2023-11-22T11:00:59;102839.09;;;3.99;100.00
59103;BME280;43999;51.660;5.616;2023-11-22T11:03:56;102820.13;;;4.09;100.00
59103;BME280;43999;51.660;5.616;2023-11-22T11:07:11;102827.97;;;4.19;100.00
59103;BME280;43999;51.660;5.616;2023-11-22T11:10:04;102836.66;;;4.33;100.00
59103;BME280;43999;51.660;5.616;2023-11-22T11:13:03;102833.28;;;4.49;100.00
59103;BME280;43999;51.660;5.616;2023-11-22T11:15:55;102843.69;;;4.62;100.00
59103;BME280;43999;51.660;5.616;2023-11-22T11:18:46;102828.97;;;4.62;100.00
59103;BME280;43999;51.660;5.616;2023-11-22T11:21:41;102829.00;;;4.70;100.00
59103;BME280;43999;51.660;5.616;2023-11-22T11:24:41;102827.28;;;4.75;100.00
59103;BME280;43999;51.660;5.616;2023-11-22T11:27:41;102837.66;;;4.80;100.00
59103;BME280;43999;51.660;5.616;2023-11-22T11:30:42;102835.09;;;4.83;100.00
59103;BME280;43999;51.660;5.616;2023-11-22T11:33:58;102818.63;;;4.81;100.00
59103;BME280;43999;51.660;5.616;2023-11-22T11:37:04;102818.66;;;4.87;100.00
59103;BME280;43999;51.660;5.616;2023-11-22T11:39:52;102796.13;;;4.94;100.00
59103;BME280;43999;51.660;5.616;2023-11-22T11:42:49;102777.09;;;5.06;100.00
59103;BME280;43999;51.660;5.616;2023-11-22T11:45:47;102771.91;;;5.21;100.00
59103;BME280;43999;51.660;5.616;2023-11-22T11:48:43;102759.75;;;5.29;100.00
59103;BME280;43999;51.660;5.616;2023-11-22T11:51:44;102755.41;;;5.45;100.00
59103;BME280;43999;51.660;5.616;2023-11-22T11:54:47;102743.28;;;5.44;100.00
59103;BME280;43999;51.660;5.616;2023-11-22T11:57:38;102743.28;;;5.44;100.00
59103;BME280;43999;51.660;5.616;2023-11-22T12:00:30;102742.41;;;5.33;100.00
59103;BME280;43999;51.660;5.616;2023-11-22T12:03:18;102737.22;;;5.28;100.00
59103;BME280;43999;51.660;5.616;2023-11-22T12:06:14;102740.72;;;5.27;100.00
59103;BME280;43999;51.660;5.616;2023-11-22T12:09:08;102732.91;;;5.21;100.00
59103;BME280;43999;51.660;5.616;2023-11-22T12:12:30;102733.78;;;5.21;100.00
59103;BME280;43999;51.660;5.616;2023-11-22T12:15:23;102731.16;;;5.25;100.00
59103;BME280;43999;51.660;5.616;2023-11-22T12:18:14;102730.31;;;5.27;100.00
59103;BME280;43999;51.660;5.616;2023-11-22T12:21:02;102725.13;;;5.29;100.00
59103;BME280;43999;51.660;5.616;2023-11-22T12:23:55;102720.78;;;5.25;100.00
59103;BME280;43999;51.660;5.616;2023-11-22T12:26:50;102726.84;;;5.27;100.00
59103;BME280;43999;51.660;5.616;2023-11-22T12:29:39;102734.66;;;5.27;100.00
59103;BME280;43999;51.660;5.616;2023-11-22T12:32:29;102739.84;;;5.27;100.00
59103;BME280;43999;51.660;5.616;2023-11-22T12:35:19;102741.56;;;5.32;100.00
59103;BME280;43999;51.660;5.616;2023-11-22T12:38:11;102743.28;;;5.41;100.00
59103;BME280;43999;51.660;5.616;2023-11-22T12:41:01;102721.56;;;5.54;100.00
59103;BME280;43999;51.660;5.616;2023-11-22T12:44:11;102725.88;;;5.74;100.00
59103;BME280;43999;51.660;5.616;2023-11-22T12:47:00;102724.94;;;5.98;100.00
59103;BME280;43999;51.660;5.616;2023-11-22T12:49:53;102729.13;;;6.28;100.00
59103;BME280;43999;51.660;5.616;2023-11-22T12:52:51;102739.38;;;6.55;100.00
59103;BME280;43999;51.660;5.616;2023-11-22T12:58:51;102741.56;;;7.10;100.00
59103;BME280;43999;51.660;5.616;2023-11-22T13:01:49;102718.97;;;7.09;100.00
59103;BME280;43999;51.660;5.616;2023-11-22T13:04:39;102707.81;;;6.93;100.00
59103;BME280;43999;51.660;5.616;2023-11-22T13:07:29;102708.81;;;6.75;100.00
59103;BME280;43999;51.660;5.616;2023-11-22T13:10:32;102710.63;;;6.70;100.00
59103;BME280;43999;51.660;5.616;2023-11-22T13:13:22;102708.88;;;6.69;100.00
59103;BME280;43999;51.660;5.616;2023-11-22T13:16:17;102702.84;;;6.64;100.00
59103;BME280;43999;51.660;5.616;2023-11-22T13:19:08;102696.69;;;6.77;100.00
59103;BME280;43999;51.660;5.616;2023-11-22T13:22:02;102687.88;;;6.88;100.00
59103;BME280;43999;51.660;5.616;2023-11-22T13:24:50;102692.25;;;6.84;100.00
59103;BME280;43999;51.660;5.616;2023-11-22T13:27:40;102677.53;;;6.80;100.00
59103;BME280;43999;51.660;5.616;2023-11-22T13:30:45;102674.13;;;6.73;100.00
59103;BME280;43999;51.660;5.616;2023-11-22T13:33:35;102669.84;;;6.64;100.00
59103;BME280;43999;51.660;5.616;2023-11-22T13:36:27;102686.38;;;6.60;100.00
59103;BME280;43999;51.660;5.616;2023-11-22T13:39:18;102686.47;;;6.48;100.00
59103;BME280;43999;51.660;5.616;2023-11-22T13:42:07;102676.97;;;6.39;100.00
59103;BME280;43999;51.660;5.616;2023-11-22T13:44:56;102674.41;;;6.32;100.00
59103;BME280;43999;51.660;5.616;2023-11-22T13:48:00;102675.34;;;6.24;100.00
59103;BME280;43999;51.660;5.616;2023-11-22T13:51:00;102668.53;;;6.05;100.00
59103;BME280;43999;51.660;5.616;2023-11-22T13:53:58;102666.81;;;5.90;100.00
59103;BME280;43999;51.660;5.616;2023-11-22T13:57:18;102659.97;;;5.77;100.00
59103;BME280;43999;51.660;5.616;2023-11-22T14:00:10;102673.00;;;5.67;100.00
59103;BME280;43999;51.660;5.616;2023-11-22T14:03:09;102677.38;;;5.56;100.00
59103;BME280;43999;51.660;5.616;2023-11-22T14:06:07;102680.00;;;5.44;100.00
59103;BME280;43999;51.660;5.616;2023-11-22T14:08:55;102683.50;;;5.33;100.00
59103;BME280;43999;51.660;5.616;2023-11-22T14:11:50;102685.28;;;5.27;100.00
59103;BME280;43999;51.660;5.616;2023-11-22T14:14:54;102681.81;;;5.18;100.00
59103;BME280;43999;51.660;5.616;2023-11-22T14:17:43;102684.41;;;5.12;100.00
59103;BME280;43999;51.660;5.616;2023-11-22T14:20:41;102674.03;;;5.01;100.00
59103;BME280;43999;51.660;5.616;2023-11-22T14:23:39;102667.97;;;4.99;100.00
59103;BME280;43999;51.660;5.616;2023-11-22T14:26:27;102671.44;;;4.94;100.00
59103;BME280;43999;51.660;5.616;2023-11-22T14:29:19;102678.38;;;4.90;100.00
59103;BME280;43999;51.660;5.616;2023-11-22T14:32:10;102668.84;;;4.81;100.00
59103;BME280;43999;51.660;5.616;2023-11-22T14:34:58;102674.94;;;4.77;100.00
59103;BME280;43999;51.660;5.616;2023-11-22T14:37:48;102664.53;;;4.74;100.00
59103;BME280;43999;51.660;5.616;2023-11-22T14:40:36;102661.06;;;4.71;100.00
59103;BME280;43999;51.660;5.616;2023-11-22T14:43:36;102666.25;;;4.67;100.00
59103;BME280;43999;51.660;5.616;2023-11-22T14:46:27;102663.66;;;4.60;100.00
59103;BME280;43999;51.660;5.616;2023-11-22T14:49:15;102669.72;;;4.60;100.00
59103;BME280;43999;51.660;5.616;2023-11-22T14:52:11;102661.94;;;4.57;100.00
59103;BME280;43999;51.660;5.616;2023-11-22T14:54:59;102654.16;;;4.54;100.00
59103;BME280;43999;51.660;5.616;2023-11-22T14:57:54;102649.81;;;4.53;100.00
59103;BME280;43999;51.660;5.616;2023-11-22T15:00:48;102648.06;;;4.49;100.00
59103;BME280;43999;51.660;5.616;2023-11-22T15:03:36;102650.66;;;4.43;100.00
59103;BME280;43999;51.660;5.616;2023-11-22T15:06:24;102639.41;;;4.38;100.00
59103;BME280;43999;51.660;5.616;2023-11-22T15:09:14;102650.66;;;4.34;100.00
59103;BME280;43999;51.660;5.616;2023-11-22T15:12:09;102654.97;;;4.24;100.00
59103;BME280;43999;51.660;5.616;2023-11-22T15:14:58;102665.34;;;4.21;100.00
59103;BME280;43999;51.660;5.616;2023-11-22T15:17:49;102658.41;;;4.17;100.00